sensor_id;sensor_type;location;lat;lon;timestamp;P1;durP1;ratioP1;P2;durP2;ratioP2
781;SDS011;374;52.568;13.402;2023-07-20T00:02:19;6.10;;;5.60;;
781;SDS011;374;52.568;13.402;2023-07-20T00:04:44;6.07;;;5.47;;
781;SDS011;374;52.568;13.402;2023-07-20T00:07:10;5.23;;;4.83;;
781;SDS011;374;52.568;13.402;2023-07-20T00:09:35;4.57;;;4.27;;
781;SDS011;374;52.568;13.402;2023-07-20T00:12:01;4.80;;;4.40;;
781;SDS011;374;52.568;13.402;2023-07-20T00:14:26;4.90;;;4.50;;
781;SDS011;374;52.568;13.402;2023-07-20T00:16:52;4.30;;;4.00;;
781;SDS011;374;52.568;13.402;2023-07-20T00:19:24;3.97;;;3.77;;
781;SDS011;374;52.568;13.402;2023-07-20T00:21:50;4.80;;;4.50;;
781;SDS011;374;52.568;13.402;2023-07-20T00:24:17;4.60;;;4.30;;
781;SDS011;374;52.568;13.402;2023-07-20T00:26:43;4.70;;;3.50;;
781;SDS011;374;52.568;13.402;2023-07-20T00:29:08;4.70;;;4.30;;
781;SDS011;374;52.568;13.402;2023-07-20T00:31:34;4.40;;;4.00;;
781;SDS011;374;52.568;13.402;2023-07-20T00:34:02;4.27;;;4.00;;
781;SDS011;374;52.568;13.402;2023-07-20T00:36:31;4.47;;;4.17;;
781;SDS011;374;52.568;13.402;2023-07-20T00:38:56;4.57;;;4.27;;
781;SDS011;374;52.568;13.402;2023-07-20T00:41:22;4.70;;;4.17;;
781;SDS011;374;52.568;13.402;2023-07-20T00:43:47;5.03;;;4.73;;
781;SDS011;374;52.568;13.402;2023-07-20T00:46:13;5.03;;;4.23;;
781;SDS011;374;52.568;13.402;2023-07-20T00:48:39;4.13;;;3.83;;
781;SDS011;374;52.568;13.402;2023-07-20T00:51:09;5.03;;;4.63;;
781;SDS011;374;52.568;13.402;2023-07-20T00:53:35;4.60;;;4.30;;
781;SDS011;374;52.568;13.402;2023-07-20T00:56:01;6.80;;;4.30;;
781;SDS011;374;52.568;13.402;2023-07-20T00:58:26;4.87;;;4.47;;
781;SDS011;374;52.568;13.402;2023-07-20T01:00:53;4.53;;;4.23;;
781;SDS011;374;52.568;13.402;2023-07-20T01:03:18;4.43;;;4.13;;
781;SDS011;374;52.568;13.402;2023-07-20T01:08:24;6.03;;;5.43;;
781;SDS011;374;52.568;13.402;2023-07-20T01:11:05;5.47;;;5.07;;
781;SDS011;374;52.568;13.402;2023-07-20T01:13:37;4.83;;;4.43;;
781;SDS011;374;52.568;13.402;2023-07-20T01:16:03;5.10;;;4.20;;
781;SDS011;374;52.568;13.402;2023-07-20T01:18:29;4.63;;;4.33;;
781;SDS011;374;52.568;13.402;2023-07-20T01:20:56;5.10;;;4.70;;
781;SDS011;374;52.568;13.402;2023-07-20T01:23:35;5.23;;;4.83;;
781;SDS011;374;52.568;13.402;2023-07-20T01:32:31;5.50;;;5.00;;
781;SDS011;374;52.568;13.402;2023-07-20T01:34:58;5.07;;;4.67;;
781;SDS011;374;52.568;13.402;2023-07-20T01:37:26;6.03;;;5.47;;
781;SDS011;374;52.568;13.402;2023-07-20T01:39:54;6.03;;;5.53;;
781;SDS011;374;52.568;13.402;2023-07-20T01:42:21;6.00;;;5.50;;
781;SDS011;374;52.568;13.402;2023-07-20T01:44:50;5.60;;;5.10;;
781;SDS011;374;52.568;13.402;2023-07-20T01:47:16;5.50;;;5.10;;
781;SDS011;374;52.568;13.402;2023-07-20T01:49:41;6.20;;;5.60;;
781;SDS011;374;52.568;13.402;2023-07-20T01:52:07;5.77;;;5.20;;
781;SDS011;374;52.568;13.402;2023-07-20T01:54:32;6.13;;;5.73;;
781;SDS011;374;52.568;13.402;2023-07-20T01:56:58;6.77;;;6.17;;
781;SDS011;374;52.568;13.402;2023-07-20T01:59:23;5.60;;;5.20;;
781;SDS011;374;52.568;13.402;2023-07-20T02:01:49;5.97;;;5.47;;
781;SDS011;374;52.568;13.402;2023-07-20T02:04:14;6.00;;;5.50;;
781;SDS011;374;52.568;13.402;2023-07-20T02:06:40;5.63;;;5.20;;
781;SDS011;374;52.568;13.402;2023-07-20T02:09:05;6.87;;;6.27;;
781;SDS011;374;52.568;13.402;2023-07-20T02:11:30;6.23;;;5.73;;
781;SDS011;374;52.568;13.402;2023-07-20T02:13:56;5.40;;;4.90;;
781;SDS011;374;52.568;13.402;2023-07-20T02:16:21;7.80;;;5.43;;
781;SDS011;374;52.568;13.402;2023-07-20T02:18:47;6.20;;;5.70;;
781;SDS011;374;52.568;13.402;2023-07-20T02:21:12;5.37;;;4.97;;
781;SDS011;374;52.568;13.402;2023-07-20T02:23:38;6.53;;;6.03;;
781;SDS011;374;52.568;13.402;2023-07-20T02:26:03;6.47;;;5.87;;
781;SDS011;374;52.568;13.402;2023-07-20T02:28:29;7.10;;;6.50;;
781;SDS011;374;52.568;13.402;2023-07-20T02:30:54;6.93;;;6.43;;
781;SDS011;374;52.568;13.402;2023-07-20T02:33:20;6.90;;;6.30;;
781;SDS011;374;52.568;13.402;2023-07-20T02:35:46;7.20;;;6.70;;
781;SDS011;374;52.568;13.402;2023-07-20T02:38:12;8.20;;;7.50;;
781;SDS011;374;52.568;13.402;2023-07-20T02:40:37;9.40;;;8.50;;
781;SDS011;374;52.568;13.402;2023-07-20T02:43:03;7.17;;;6.57;;
781;SDS011;374;52.568;13.402;2023-07-20T02:45:28;8.50;;;7.80;;
781;SDS011;374;52.568;13.402;2023-07-20T02:47:54;9.77;;;8.87;;
781;SDS011;374;52.568;13.402;2023-07-20T02:50:19;10.20;;;9.27;;
781;SDS011;374;52.568;13.402;2023-07-20T02:52:45;10.43;;;9.40;;
781;SDS011;374;52.568;13.402;2023-07-20T02:55:10;9.60;;;8.60;;
781;SDS011;374;52.568;13.402;2023-07-20T02:57:36;10.00;;;9.00;;
781;SDS011;374;52.568;13.402;2023-07-20T03:00:02;8.90;;;8.13;;
781;SDS011;374;52.568;13.402;2023-07-20T03:02:30;9.47;;;8.67;;
781;SDS011;374;52.568;13.402;2023-07-20T03:04:55;9.70;;;8.70;;
781;SDS011;374;52.568;13.402;2023-07-20T03:07:22;9.13;;;8.23;;
781;SDS011;374;52.568;13.402;2023-07-20T03:09:48;9.37;;;8.57;;
781;SDS011;374;52.568;13.402;2023-07-20T03:12:13;9.67;;;8.73;;
781;SDS011;374;52.568;13.402;2023-07-20T03:14:39;8.93;;;8.20;;
781;SDS011;374;52.568;13.402;2023-07-20T03:17:04;10.70;;;9.70;;
781;SDS011;374;52.568;13.402;2023-07-20T03:19:30;10.67;;;9.57;;
781;SDS011;374;52.568;13.402;2023-07-20T03:21:56;10.67;;;8.90;;
781;SDS011;374;52.568;13.402;2023-07-20T03:24:21;11.37;;;10.13;;
781;SDS011;374;52.568;13.402;2023-07-20T03:26:48;9.47;;;8.57;;
781;SDS011;374;52.568;13.402;2023-07-20T03:29:14;11.00;;;9.80;;
781;SDS011;374;52.568;13.402;2023-07-20T03:31:41;11.10;;;10.00;;
781;SDS011;374;52.568;13.402;2023-07-20T03:34:06;12.27;;;10.47;;
781;SDS011;374;52.568;13.402;2023-07-20T03:36:33;10.67;;;9.70;;
781;SDS011;374;52.568;13.402;2023-07-20T03:38:59;11.27;;;10.27;;
781;SDS011;374;52.568;13.402;2023-07-20T03:41:24;11.57;;;10.60;;
781;SDS011;374;52.568;13.402;2023-07-20T03:43:50;13.30;;;12.00;;
781;SDS011;374;52.568;13.402;2023-07-20T03:46:15;11.93;;;10.73;;
781;SDS011;374;52.568;13.402;2023-07-20T03:48:41;12.17;;;9.97;;
781;SDS011;374;52.568;13.402;2023-07-20T03:51:06;11.87;;;10.67;;
781;SDS011;374;52.568;13.402;2023-07-20T03:53:32;10.70;;;9.70;;
781;SDS011;374;52.568;13.402;2023-07-20T03:55:57;11.60;;;10.50;;
781;SDS011;374;52.568;13.402;2023-07-20T03:58:23;10.53;;;9.47;;
781;SDS011;374;52.568;13.402;2023-07-20T04:00:49;11.00;;;9.90;;
781;SDS011;374;52.568;13.402;2023-07-20T04:03:15;11.03;;;10.03;;
781;SDS011;374;52.568;13.402;2023-07-20T04:05:41;9.90;;;9.00;;
781;SDS011;374;52.568;13.402;2023-07-20T04:08:07;10.67;;;9.57;;
781;SDS011;374;52.568;13.402;2023-07-20T04:10:33;12.20;;;11.10;;
781;SDS011;374;52.568;13.402;2023-07-20T04:12:58;12.23;;;10.77;;
781;SDS011;374;52.568;13.402;2023-07-20T04:15:24;13.03;;;11.87;;
781;SDS011;374;52.568;13.402;2023-07-20T04:17:49;12.00;;;10.80;;
781;SDS011;374;52.568;13.402;2023-07-20T04:20:15;13.23;;;11.90;;
781;SDS011;374;52.568;13.402;2023-07-20T04:22:40;11.73;;;10.67;;
781;SDS011;374;52.568;13.402;2023-07-20T04:25:06;14.70;;;12.00;;
781;SDS011;374;52.568;13.402;2023-07-20T04:27:32;13.80;;;12.40;;
781;SDS011;374;52.568;13.402;2023-07-20T04:29:58;12.63;;;11.43;;
781;SDS011;374;52.568;13.402;2023-07-20T04:32:26;13.13;;;12.03;;
781;SDS011;374;52.568;13.402;2023-07-20T04:34:52;12.43;;;11.13;;
781;SDS011;374;52.568;13.402;2023-07-20T04:37:17;11.00;;;10.10;;
781;SDS011;374;52.568;13.402;2023-07-20T04:39:43;11.13;;;10.10;;
781;SDS011;374;52.568;13.402;2023-07-20T04:42:08;11.10;;;10.00;;
781;SDS011;374;52.568;13.402;2023-07-20T04:44:34;11.70;;;10.57;;
781;SDS011;374;52.568;13.402;2023-07-20T04:46:59;12.30;;;10.47;;
781;SDS011;374;52.568;13.402;2023-07-20T04:49:25;11.63;;;10.43;;
781;SDS011;374;52.568;13.402;2023-07-20T04:51:51;11.57;;;10.57;;
781;SDS011;374;52.568;13.402;2023-07-20T04:54:16;10.47;;;9.60;;
781;SDS011;374;52.568;13.402;2023-07-20T04:56:43;11.37;;;10.27;;
781;SDS011;374;52.568;13.402;2023-07-20T04:59:09;11.30;;;10.20;;
781;SDS011;374;52.568;13.402;2023-07-20T05:01:34;13.27;;;9.90;;
781;SDS011;374;52.568;13.402;2023-07-20T05:04:00;8.77;;;8.07;;
781;SDS011;374;52.568;13.402;2023-07-20T05:06:25;8.80;;;8.00;;
781;SDS011;374;52.568;13.402;2023-07-20T05:08:51;8.50;;;7.67;;
781;SDS011;374;52.568;13.402;2023-07-20T05:11:16;8.30;;;7.60;;
781;SDS011;374;52.568;13.402;2023-07-20T05:13:42;9.90;;;9.00;;
781;SDS011;374;52.568;13.402;2023-07-20T05:16:07;9.50;;;8.50;;
781;SDS011;374;52.568;13.402;2023-07-20T05:18:33;9.87;;;8.97;;
781;SDS011;374;52.568;13.402;2023-07-20T05:20:58;9.47;;;8.67;;
781;SDS011;374;52.568;13.402;2023-07-20T05:23:24;8.63;;;7.87;;
781;SDS011;374;52.568;13.402;2023-07-20T05:25:53;7.93;;;7.27;;
781;SDS011;374;52.568;13.402;2023-07-20T05:28:21;9.70;;;8.70;;
781;SDS011;374;52.568;13.402;2023-07-20T05:30:46;10.30;;;9.30;;
781;SDS011;374;52.568;13.402;2023-07-20T05:33:12;10.50;;;9.60;;
781;SDS011;374;52.568;13.402;2023-07-20T05:35:37;9.53;;;8.80;;
781;SDS011;374;52.568;13.402;2023-07-20T05:38:03;9.77;;;8.97;;
781;SDS011;374;52.568;13.402;2023-07-20T05:40:30;9.90;;;9.03;;
781;SDS011;374;52.568;13.402;2023-07-20T05:42:55;10.20;;;9.37;;
781;SDS011;374;52.568;13.402;2023-07-20T05:45:21;10.10;;;9.13;;
781;SDS011;374;52.568;13.402;2023-07-20T05:47:47;10.33;;;9.53;;
781;SDS011;374;52.568;13.402;2023-07-20T05:50:14;9.37;;;8.67;;
781;SDS011;374;52.568;13.402;2023-07-20T05:52:40;9.43;;;8.53;;
781;SDS011;374;52.568;13.402;2023-07-20T05:55:05;8.50;;;7.67;;
781;SDS011;374;52.568;13.402;2023-07-20T05:57:31;8.57;;;7.77;;
781;SDS011;374;52.568;13.402;2023-07-20T05:59:57;10.20;;;9.30;;
781;SDS011;374;52.568;13.402;2023-07-20T06:02:22;10.77;;;9.67;;
781;SDS011;374;52.568;13.402;2023-07-20T06:04:48;10.70;;;8.70;;
781;SDS011;374;52.568;13.402;2023-07-20T06:07:14;8.67;;;7.90;;
781;SDS011;374;52.568;13.402;2023-07-20T06:09:40;6.33;;;5.83;;
781;SDS011;374;52.568;13.402;2023-07-20T06:12:06;6.90;;;6.20;;
781;SDS011;374;52.568;13.402;2023-07-20T06:14:32;6.20;;;5.70;;
781;SDS011;374;52.568;13.402;2023-07-20T06:16:57;6.13;;;5.63;;
781;SDS011;374;52.568;13.402;2023-07-20T06:19:22;5.67;;;5.23;;
781;SDS011;374;52.568;13.402;2023-07-20T06:21:48;7.60;;;5.53;;
781;SDS011;374;52.568;13.402;2023-07-20T06:24:14;5.87;;;5.27;;
781;SDS011;374;52.568;13.402;2023-07-20T06:26:40;4.50;;;4.20;;
781;SDS011;374;52.568;13.402;2023-07-20T06:29:06;4.37;;;4.07;;
781;SDS011;374;52.568;13.402;2023-07-20T06:31:32;6.90;;;4.63;;
781;SDS011;374;52.568;13.402;2023-07-20T06:33:58;5.23;;;4.73;;
781;SDS011;374;52.568;13.402;2023-07-20T06:36:24;3.87;;;3.57;;
781;SDS011;374;52.568;13.402;2023-07-20T06:38:51;3.57;;;3.37;;
781;SDS011;374;52.568;13.402;2023-07-20T06:41:16;4.43;;;4.13;;
781;SDS011;374;52.568;13.402;2023-07-20T06:43:42;4.63;;;4.23;;
781;SDS011;374;52.568;13.402;2023-07-20T06:46:07;4.23;;;3.80;;
781;SDS011;374;52.568;13.402;2023-07-20T06:48:33;12.60;;;3.97;;
781;SDS011;374;52.568;13.402;2023-07-20T06:50:58;3.77;;;3.50;;
781;SDS011;374;52.568;13.402;2023-07-20T06:53:24;4.50;;;4.10;;
781;SDS011;374;52.568;13.402;2023-07-20T06:55:49;3.60;;;3.30;;
781;SDS011;374;52.568;13.402;2023-07-20T06:58:15;4.27;;;3.50;;
781;SDS011;374;52.568;13.402;2023-07-20T07:00:40;3.67;;;3.27;;
781;SDS011;374;52.568;13.402;2023-07-20T07:03:06;4.17;;;3.13;;
781;SDS011;374;52.568;13.402;2023-07-20T07:05:36;2.50;;;2.30;;
781;SDS011;374;52.568;13.402;2023-07-20T07:08:05;2.50;;;2.40;;
781;SDS011;374;52.568;13.402;2023-07-20T07:10:31;3.60;;;2.93;;
781;SDS011;374;52.568;13.402;2023-07-20T07:12:59;5.00;;;3.40;;
781;SDS011;374;52.568;13.402;2023-07-20T07:15:27;3.07;;;2.87;;
781;SDS011;374;52.568;13.402;2023-07-20T07:17:53;3.03;;;2.83;;
781;SDS011;374;52.568;13.402;2023-07-20T07:20:21;2.90;;;2.70;;
781;SDS011;374;52.568;13.402;2023-07-20T07:22:47;3.10;;;2.90;;
781;SDS011;374;52.568;13.402;2023-07-20T07:25:12;3.20;;;3.00;;
781;SDS011;374;52.568;13.402;2023-07-20T07:27:38;2.90;;;2.80;;
781;SDS011;374;52.568;13.402;2023-07-20T07:30:03;2.80;;;2.60;;
781;SDS011;374;52.568;13.402;2023-07-20T07:32:30;2.90;;;2.70;;
781;SDS011;374;52.568;13.402;2023-07-20T07:34:55;3.57;;;3.23;;
781;SDS011;374;52.568;13.402;2023-07-20T07:37:23;2.53;;;2.37;;
781;SDS011;374;52.568;13.402;2023-07-20T07:39:48;2.30;;;2.20;;
781;SDS011;374;52.568;13.402;2023-07-20T07:42:14;2.73;;;2.40;;
781;SDS011;374;52.568;13.402;2023-07-20T07:44:40;2.37;;;2.27;;
781;SDS011;374;52.568;13.402;2023-07-20T07:47:05;2.53;;;2.33;;
781;SDS011;374;52.568;13.402;2023-07-20T07:49:31;1.93;;;1.83;;
781;SDS011;374;52.568;13.402;2023-07-20T07:51:57;2.57;;;2.37;;
781;SDS011;374;52.568;13.402;2023-07-20T07:54:22;2.00;;;1.90;;
781;SDS011;374;52.568;13.402;2023-07-20T07:56:48;2.43;;;2.33;;
781;SDS011;374;52.568;13.402;2023-07-20T07:59:13;2.30;;;2.10;;
781;SDS011;374;52.568;13.402;2023-07-20T08:01:39;2.50;;;2.30;;
781;SDS011;374;52.568;13.402;2023-07-20T08:04:04;2.00;;;1.90;;
781;SDS011;374;52.568;13.402;2023-07-20T08:06:30;2.97;;;2.30;;
781;SDS011;374;52.568;13.402;2023-07-20T08:08:56;2.83;;;2.60;;
781;SDS011;374;52.568;13.402;2023-07-20T08:11:22;2.73;;;2.53;;
781;SDS011;374;52.568;13.402;2023-07-20T08:13:48;1.83;;;1.73;;
781;SDS011;374;52.568;13.402;2023-07-20T08:16:14;1.90;;;1.80;;
781;SDS011;374;52.568;13.402;2023-07-20T08:18:39;2.50;;;2.33;;
781;SDS011;374;52.568;13.402;2023-07-20T08:21:05;2.07;;;1.97;;
781;SDS011;374;52.568;13.402;2023-07-20T08:23:30;2.80;;;1.60;;
781;SDS011;374;52.568;13.402;2023-07-20T08:25:56;1.80;;;1.70;;
781;SDS011;374;52.568;13.402;2023-07-20T08:28:21;2.00;;;1.63;;
781;SDS011;374;52.568;13.402;2023-07-20T08:30:47;2.20;;;1.87;;
781;SDS011;374;52.568;13.402;2023-07-20T08:33:14;2.40;;;2.30;;
781;SDS011;374;52.568;13.402;2023-07-20T08:35:40;1.90;;;1.63;;
781;SDS011;374;52.568;13.402;2023-07-20T08:38:07;1.73;;;1.63;;
781;SDS011;374;52.568;13.402;2023-07-20T08:40:42;1.70;;;1.60;;
781;SDS011;374;52.568;13.402;2023-07-20T08:43:12;2.30;;;1.87;;
781;SDS011;374;52.568;13.402;2023-07-20T08:45:39;1.97;;;1.50;;
781;SDS011;374;52.568;13.402;2023-07-20T08:48:05;1.43;;;1.33;;
781;SDS011;374;52.568;13.402;2023-07-20T08:50:32;1.63;;;1.53;;
781;SDS011;374;52.568;13.402;2023-07-20T08:52:59;1.20;;;1.20;;
781;SDS011;374;52.568;13.402;2023-07-20T08:55:26;1.23;;;1.20;;
781;SDS011;374;52.568;13.402;2023-07-20T08:57:55;1.43;;;1.30;;
781;SDS011;374;52.568;13.402;2023-07-20T09:00:22;1.50;;;1.40;;
781;SDS011;374;52.568;13.402;2023-07-20T09:02:50;1.70;;;1.40;;
781;SDS011;374;52.568;13.402;2023-07-20T09:05:17;1.73;;;1.63;;
781;SDS011;374;52.568;13.402;2023-07-20T09:07:43;1.70;;;1.60;;
781;SDS011;374;52.568;13.402;2023-07-20T09:10:08;1.40;;;1.30;;
781;SDS011;374;52.568;13.402;2023-07-20T09:12:35;1.20;;;1.20;;
781;SDS011;374;52.568;13.402;2023-07-20T09:15:03;1.30;;;1.30;;
781;SDS011;374;52.568;13.402;2023-07-20T09:17:30;1.50;;;1.40;;
781;SDS011;374;52.568;13.402;2023-07-20T09:19:56;1.83;;;1.40;;
781;SDS011;374;52.568;13.402;2023-07-20T09:22:21;1.73;;;1.63;;
781;SDS011;374;52.568;13.402;2023-07-20T09:24:47;3.23;;;1.87;;
781;SDS011;374;52.568;13.402;2023-07-20T09:27:13;3.30;;;1.20;;
781;SDS011;374;52.568;13.402;2023-07-20T09:29:47;1.60;;;1.50;;
781;SDS011;374;52.568;13.402;2023-07-20T09:32:14;1.77;;;1.67;;
781;SDS011;374;52.568;13.402;2023-07-20T09:34:45;1.70;;;1.60;;
781;SDS011;374;52.568;13.402;2023-07-20T09:37:11;1.10;;;1.10;;
781;SDS011;374;52.568;13.402;2023-07-20T09:39:45;6.10;;;1.63;;
781;SDS011;374;52.568;13.402;2023-07-20T09:42:11;1.20;;;1.10;;
781;SDS011;374;52.568;13.402;2023-07-20T09:44:42;1.40;;;1.27;;
781;SDS011;374;52.568;13.402;2023-07-20T09:47:08;2.90;;;1.20;;
781;SDS011;374;52.568;13.402;2023-07-20T09:49:40;2.00;;;1.27;;
781;SDS011;374;52.568;13.402;2023-07-20T09:52:06;2.30;;;1.50;;
781;SDS011;374;52.568;13.402;2023-07-20T09:54:34;1.40;;;1.30;;
781;SDS011;374;52.568;13.402;2023-07-20T09:57:09;1.67;;;1.57;;
781;SDS011;374;52.568;13.402;2023-07-20T09:59:35;1.30;;;1.30;;
781;SDS011;374;52.568;13.402;2023-07-20T10:02:01;1.40;;;1.30;;
781;SDS011;374;52.568;13.402;2023-07-20T10:04:29;4.03;;;1.30;;
781;SDS011;374;52.568;13.402;2023-07-20T10:06:57;1.43;;;1.33;;
781;SDS011;374;52.568;13.402;2023-07-20T10:09:27;1.40;;;1.30;;
781;SDS011;374;52.568;13.402;2023-07-20T10:11:54;1.60;;;1.50;;
781;SDS011;374;52.568;13.402;2023-07-20T10:14:21;2.00;;;1.20;;
781;SDS011;374;52.568;13.402;2023-07-20T10:16:50;1.50;;;1.40;;
781;SDS011;374;52.568;13.402;2023-07-20T10:19:18;2.70;;;2.07;;
781;SDS011;374;52.568;13.402;2023-07-20T10:21:51;2.87;;;1.60;;
781;SDS011;374;52.568;13.402;2023-07-20T10:24:24;3.17;;;1.57;;
781;SDS011;374;52.568;13.402;2023-07-20T10:26:51;1.30;;;1.20;;
781;SDS011;374;52.568;13.402;2023-07-20T10:29:16;1.70;;;1.20;;
781;SDS011;374;52.568;13.402;2023-07-20T10:31:43;1.53;;;1.43;;
781;SDS011;374;52.568;13.402;2023-07-20T10:34:09;2.70;;;2.50;;
781;SDS011;374;52.568;13.402;2023-07-20T10:36:35;1.90;;;1.80;;
781;SDS011;374;52.568;13.402;2023-07-20T10:39:31;1.53;;;1.43;;
781;SDS011;374;52.568;13.402;2023-07-20T10:42:00;1.50;;;1.40;;
781;SDS011;374;52.568;13.402;2023-07-20T10:44:32;1.90;;;1.80;;
781;SDS011;374;52.568;13.402;2023-07-20T10:47:02;2.90;;;2.70;;
781;SDS011;374;52.568;13.402;2023-07-20T10:49:33;2.80;;;1.80;;
781;SDS011;374;52.568;13.402;2023-07-20T10:52:00;2.10;;;1.93;;
781;SDS011;374;52.568;13.402;2023-07-20T10:57:07;1.40;;;1.23;;
781;SDS011;374;52.568;13.402;2023-07-20T10:59:53;1.07;;;1.07;;
781;SDS011;374;52.568;13.402;2023-07-20T11:02:45;1.50;;;1.40;;
781;SDS011;374;52.568;13.402;2023-07-20T11:08:03;1.30;;;1.30;;
781;SDS011;374;52.568;13.402;2023-07-20T11:10:29;1.20;;;1.10;;
781;SDS011;374;52.568;13.402;2023-07-20T11:13:15;1.30;;;1.30;;
781;SDS011;374;52.568;13.402;2023-07-20T11:18:27;2.20;;;1.10;;
781;SDS011;374;52.568;13.402;2023-07-20T11:20:53;1.20;;;1.10;;
781;SDS011;374;52.568;13.402;2023-07-20T11:23:22;1.40;;;1.30;;
781;SDS011;374;52.568;13.402;2023-07-20T11:25:50;1.17;;;1.17;;
781;SDS011;374;52.568;13.402;2023-07-20T11:28:16;1.10;;;1.00;;
781;SDS011;374;52.568;13.402;2023-07-20T11:30:41;2.50;;;1.10;;
781;SDS011;374;52.568;13.402;2023-07-20T11:33:10;0.93;;;0.93;;
781;SDS011;374;52.568;13.402;2023-07-20T11:35:36;1.43;;;1.23;;
781;SDS011;374;52.568;13.402;2023-07-20T11:38:08;3.60;;;1.57;;
781;SDS011;374;52.568;13.402;2023-07-20T11:40:34;1.37;;;1.10;;
781;SDS011;374;52.568;13.402;2023-07-20T11:42:59;1.47;;;1.37;;
781;SDS011;374;52.568;13.402;2023-07-20T11:45:25;0.93;;;0.90;;
781;SDS011;374;52.568;13.402;2023-07-20T11:47:52;1.40;;;1.30;;
781;SDS011;374;52.568;13.402;2023-07-20T11:50:18;1.27;;;1.17;;
781;SDS011;374;52.568;13.402;2023-07-20T11:52:43;3.03;;;1.43;;
781;SDS011;374;52.568;13.402;2023-07-20T11:55:09;1.20;;;1.10;;
781;SDS011;374;52.568;13.402;2023-07-20T11:57:36;1.37;;;0.80;;
781;SDS011;374;52.568;13.402;2023-07-20T12:00:03;1.37;;;1.27;;
781;SDS011;374;52.568;13.402;2023-07-20T12:02:34;1.20;;;1.10;;
781;SDS011;374;52.568;13.402;2023-07-20T12:04:59;1.30;;;1.20;;
781;SDS011;374;52.568;13.402;2023-07-20T12:07:26;2.50;;;2.30;;
781;SDS011;374;52.568;13.402;2023-07-20T12:10:11;1.90;;;1.30;;
781;SDS011;374;52.568;13.402;2023-07-20T12:12:37;1.93;;;1.40;;
781;SDS011;374;52.568;13.402;2023-07-20T12:15:14;3.10;;;1.60;;
781;SDS011;374;52.568;13.402;2023-07-20T12:17:49;2.20;;;1.33;;
781;SDS011;374;52.568;13.402;2023-07-20T12:20:30;1.73;;;1.40;;
781;SDS011;374;52.568;13.402;2023-07-20T12:22:59;1.67;;;1.37;;
781;SDS011;374;52.568;13.402;2023-07-20T12:25:32;1.30;;;1.20;;
781;SDS011;374;52.568;13.402;2023-07-20T12:28:08;1.47;;;1.30;;
781;SDS011;374;52.568;13.402;2023-07-20T12:30:36;1.70;;;1.60;;
781;SDS011;374;52.568;13.402;2023-07-20T12:33:02;1.20;;;1.10;;
781;SDS011;374;52.568;13.402;2023-07-20T12:35:28;1.30;;;1.20;;
781;SDS011;374;52.568;13.402;2023-07-20T12:37:54;1.23;;;1.13;;
781;SDS011;374;52.568;13.402;2023-07-20T12:40:20;1.30;;;1.20;;
781;SDS011;374;52.568;13.402;2023-07-20T12:42:46;2.20;;;1.17;;
781;SDS011;374;52.568;13.402;2023-07-20T12:45:11;1.47;;;1.20;;
781;SDS011;374;52.568;13.402;2023-07-20T12:47:38;1.40;;;1.30;;
781;SDS011;374;52.568;13.402;2023-07-20T12:50:04;1.30;;;1.20;;
781;SDS011;374;52.568;13.402;2023-07-20T12:52:31;1.00;;;1.00;;
781;SDS011;374;52.568;13.402;2023-07-20T12:55:00;1.00;;;1.00;;
781;SDS011;374;52.568;13.402;2023-07-20T12:57:26;1.00;;;0.90;;
781;SDS011;374;52.568;13.402;2023-07-20T12:59:51;1.27;;;1.17;;
781;SDS011;374;52.568;13.402;2023-07-20T13:02:17;1.37;;;1.27;;
781;SDS011;374;52.568;13.402;2023-07-20T13:04:42;2.30;;;1.40;;
781;SDS011;374;52.568;13.402;2023-07-20T13:07:09;2.10;;;1.47;;
781;SDS011;374;52.568;13.402;2023-07-20T13:09:38;1.07;;;1.07;;
781;SDS011;374;52.568;13.402;2023-07-20T13:12:04;1.30;;;0.97;;
781;SDS011;374;52.568;13.402;2023-07-20T13:14:30;1.40;;;1.17;;
781;SDS011;374;52.568;13.402;2023-07-20T13:16:55;1.63;;;1.30;;
781;SDS011;374;52.568;13.402;2023-07-20T13:19:21;2.27;;;1.70;;
781;SDS011;374;52.568;13.402;2023-07-20T13:21:46;2.20;;;1.10;;
781;SDS011;374;52.568;13.402;2023-07-20T13:24:12;1.03;;;0.90;;
781;SDS011;374;52.568;13.402;2023-07-20T13:26:38;2.70;;;2.33;;
781;SDS011;374;52.568;13.402;2023-07-20T13:29:03;0.80;;;0.80;;
781;SDS011;374;52.568;13.402;2023-07-20T13:31:29;1.53;;;1.20;;
781;SDS011;374;52.568;13.402;2023-07-20T13:33:54;1.47;;;0.90;;
781;SDS011;374;52.568;13.402;2023-07-20T13:36:21;1.13;;;1.03;;
781;SDS011;374;52.568;13.402;2023-07-20T13:38:47;1.43;;;1.33;;
781;SDS011;374;52.568;13.402;2023-07-20T13:41:13;3.73;;;1.00;;
781;SDS011;374;52.568;13.402;2023-07-20T13:43:41;1.13;;;0.80;;
781;SDS011;374;52.568;13.402;2023-07-20T13:46:06;1.50;;;1.20;;
781;SDS011;374;52.568;13.402;2023-07-20T13:48:32;1.00;;;1.00;;
781;SDS011;374;52.568;13.402;2023-07-20T13:50:57;1.20;;;1.10;;
781;SDS011;374;52.568;13.402;2023-07-20T13:53:23;1.37;;;1.10;;
781;SDS011;374;52.568;13.402;2023-07-20T13:55:48;1.27;;;1.17;;
781;SDS011;374;52.568;13.402;2023-07-20T13:58:14;1.50;;;1.40;;
781;SDS011;374;52.568;13.402;2023-07-20T14:00:40;0.90;;;0.90;;
781;SDS011;374;52.568;13.402;2023-07-20T14:03:05;0.93;;;0.93;;
781;SDS011;374;52.568;13.402;2023-07-20T14:05:31;1.30;;;1.03;;
781;SDS011;374;52.568;13.402;2023-07-20T14:07:56;1.50;;;1.40;;
781;SDS011;374;52.568;13.402;2023-07-20T14:10:22;0.90;;;0.80;;
781;SDS011;374;52.568;13.402;2023-07-20T14:12:47;1.53;;;1.43;;
781;SDS011;374;52.568;13.402;2023-07-20T14:15:13;4.00;;;2.03;;
781;SDS011;374;52.568;13.402;2023-07-20T14:17:38;2.07;;;1.87;;
781;SDS011;374;52.568;13.402;2023-07-20T14:20:04;1.50;;;1.40;;
781;SDS011;374;52.568;13.402;2023-07-20T14:22:30;1.23;;;0.90;;
781;SDS011;374;52.568;13.402;2023-07-20T14:24:56;2.20;;;1.60;;
781;SDS011;374;52.568;13.402;2023-07-20T14:27:21;3.47;;;2.37;;
781;SDS011;374;52.568;13.402;2023-07-20T14:29:47;2.40;;;1.80;;
781;SDS011;374;52.568;13.402;2023-07-20T14:32:12;6.40;;;3.00;;
781;SDS011;374;52.568;13.402;2023-07-20T14:34:38;2.67;;;2.40;;
781;SDS011;374;52.568;13.402;2023-07-20T14:37:04;2.60;;;2.40;;
781;SDS011;374;52.568;13.402;2023-07-20T14:39:30;1.87;;;1.70;;
781;SDS011;374;52.568;13.402;2023-07-20T14:41:55;5.47;;;4.00;;
781;SDS011;374;52.568;13.402;2023-07-20T14:44:21;3.40;;;3.00;;
781;SDS011;374;52.568;13.402;2023-07-20T14:46:46;2.10;;;1.90;;
781;SDS011;374;52.568;13.402;2023-07-20T14:49:12;1.67;;;1.10;;
781;SDS011;374;52.568;13.402;2023-07-20T14:51:37;6.40;;;3.43;;
781;SDS011;374;52.568;13.402;2023-07-20T14:54:08;6.07;;;2.90;;
781;SDS011;374;52.568;13.402;2023-07-20T14:56:34;4.10;;;2.30;;
781;SDS011;374;52.568;13.402;2023-07-20T14:59:02;2.57;;;2.37;;
781;SDS011;374;52.568;13.402;2023-07-20T15:01:32;5.00;;;3.50;;
781;SDS011;374;52.568;13.402;2023-07-20T15:03:57;3.27;;;2.97;;
781;SDS011;374;52.568;13.402;2023-07-20T15:06:26;2.80;;;2.60;;
781;SDS011;374;52.568;13.402;2023-07-20T15:08:51;6.17;;;4.43;;
781;SDS011;374;52.568;13.402;2023-07-20T15:11:17;3.20;;;2.90;;
781;SDS011;374;52.568;13.402;2023-07-20T15:13:42;4.73;;;3.17;;
781;SDS011;374;52.568;13.402;2023-07-20T15:16:08;6.13;;;3.30;;
781;SDS011;374;52.568;13.402;2023-07-20T15:18:35;4.30;;;2.77;;
781;SDS011;374;52.568;13.402;2023-07-20T15:21:01;3.43;;;3.10;;
781;SDS011;374;52.568;13.402;2023-07-20T15:23:32;2.20;;;2.00;;
781;SDS011;374;52.568;13.402;2023-07-20T15:25:58;2.57;;;1.90;;
781;SDS011;374;52.568;13.402;2023-07-20T15:28:23;2.80;;;2.60;;
781;SDS011;374;52.568;13.402;2023-07-20T15:30:49;2.50;;;1.90;;
781;SDS011;374;52.568;13.402;2023-07-20T15:33:16;2.70;;;2.50;;
781;SDS011;374;52.568;13.402;2023-07-20T15:35:42;5.70;;;2.80;;
781;SDS011;374;52.568;13.402;2023-07-20T15:38:07;3.50;;;2.97;;
781;SDS011;374;52.568;13.402;2023-07-20T15:40:33;2.70;;;2.50;;
781;SDS011;374;52.568;13.402;2023-07-20T15:42:58;2.00;;;1.80;;